Time;durP1;ratioP1;P1;durP2;ratioP2;P2;SDS_P1;SDS_P2;PMS_P1;PMS_P2;Temp;Humidity;BMP_temperature;BMP_pressure;BME280_temperature;BME280_humidity;BME280_pressure;Samples;Min_cycle;Max_cycle;Signal;HPM_P1;HPM_P2
2023/03/28 00:01:24;;;;;;;;;;;;;;;-142.75;100.00;79102.56;5012669;28;19914;-65
2023/03/28 00:03:51;;;;;;;;;;;;;;;-142.75;100.00;79106.50;5012562;28;19913;-65
2023/03/28 00:06:17;;;;;;;;;;;;;;;-142.75;100.00;79118.31;5012662;28;19988;-65
2023/03/28 00:08:44;;;;;;;;;;;;;;;-142.75;100.00;79141.94;5029059;28;19921;-65
2023/03/28 00:11:20;;;;;;;;;;;;;;;-142.75;100.00;79132.09;5032241;28;19913;-65
2023/03/28 00:14:02;;;;;;;;;;;;;;;-142.75;100.00;79157.72;5032379;28;19913;-65
2023/03/28 00:16:32;;;;;;;;;;;;;;;-142.75;100.00;79165.59;5032402;28;20300;-65
2023/03/28 00:18:59;;;;;;;;;;;;;;;-142.75;100.00;79165.59;5032152;28;19923;-65
2023/03/28 00:21:35;;;;;;;;;;;;;;;-142.75;100.00;79145.88;5032109;28;19956;-66
2023/03/28 00:24:02;;;;;;;;;;;;;;;-142.75;100.00;79138.00;5032032;28;19921;-66
2023/03/28 00:26:32;;;;;;;;;;;;;;;-142.75;100.00;79126.19;5032088;28;20007;-65
2023/03/28 00:28:57;;;;;;;;;;;;;;;-142.75;100.00;79126.19;5032153;28;19917;-65
2023/03/28 00:31:24;;;;;;;;;;;;;;;-142.75;100.00;79141.94;5030716;28;19950;-66
2023/03/28 00:33:49;;;;;;;;;;;;;;;-142.75;100.00;79138.00;5032007;28;19909;-66
2023/03/28 00:36:17;;;;;;;;;;;;;;;-142.75;100.00;79134.06;5032024;28;19983;-64
2023/03/28 00:38:42;;;;;;;;;;;;;;;-142.75;100.00;79134.06;5030702;28;19913;-65
2023/03/28 00:41:08;;;;;;;;;;;;;;;-142.75;100.00;79139.97;5031972;28;20296;-65
2023/03/28 00:43:38;;;;;;;;;;;;;;;-142.75;100.00;79149.81;5032046;28;19928;-65
2023/03/28 00:46:07;;;;;;;;;;;;;;;-142.75;100.00;79155.72;5030489;28;20410;-66
2023/03/28 00:48:32;;;;;;;;;;;;;;;-142.75;100.00;79167.56;5031827;28;20099;-65
2023/03/28 00:51:02;;;;;;;;;;;;;;;-142.75;100.00;79173.47;5031963;28;19979;-65
2023/03/28 00:53:28;;;;;;;;;;;;;;;-142.75;100.00;79161.66;5030711;28;20505;-65
2023/03/28 00:56:00;;;;;;;;;;;;;;;-142.75;100.00;79189.22;5031755;28;19917;-65
2023/03/28 00:58:28;;;;;;;;;;;;;;;-142.75;100.00;79189.22;5030437;28;19913;-65
2023/03/28 01:00:54;;;;;;;;;;;;;;;-142.75;100.00;79171.50;5032425;28;19913;-65
2023/03/28 01:03:21;;;;;;;;;;;;;;;-142.75;100.00;79183.31;5035690;28;20335;-65
2023/03/28 01:05:47;;;;;;;;;;;;;;;-142.75;100.00;79185.28;5035639;28;19917;-65
2023/03/28 01:08:12;;;;;;;;;;;;;;;-142.75;100.00;79175.44;5035595;28;19923;-63
2023/03/28 01:10:37;;;;;;;;;;;;;;;-142.75;100.00;79161.66;5035549;28;20369;-65
2023/03/28 01:13:03;;;;;;;;;;;;;;;-142.75;100.00;79149.81;5036036;28;19917;-65
2023/03/28 01:15:28;;;;;;;;;;;;;;;-142.75;100.00;79139.97;5035475;28;20004;-65
2023/03/28 01:17:54;;;;;;;;;;;;;;;-142.75;100.00;79151.78;5035599;28;19967;-64
2023/03/28 01:20:31;;;;;;;;;;;;;;;-142.75;100.00;79149.81;5035598;28;19913;-65
2023/03/28 01:22:56;;;;;;;;;;;;;;;-142.75;100.00;79139.97;5035495;28;20443;-64
2023/03/28 01:25:46;;;;;;;;;;;;;;;-142.75;100.00;79126.19;5035237;28;19913;-64
2023/03/28 01:28:25;;;;;;;;;;;;;;;-142.75;100.00;79130.13;5034231;28;19913;-65
2023/03/28 01:31:16;;;;;;;;;;;;;;;-142.75;100.00;79122.25;5035153;28;19920;-65
2023/03/28 01:33:41;;;;;;;;;;;;;;;-142.75;100.00;79130.13;5035142;28;19913;-65
2023/03/28 01:36:26;;;;;;;;;;;;;;;-142.75;100.00;79134.06;5035128;28;19917;-65
2023/03/28 01:39:01;;;;;;;;;;;;;;;-142.75;100.00;79151.78;5024067;28;19925;-64
2023/03/28 01:41:26;;;;;;;;;;;;;;;-142.75;100.00;79138.00;5035092;28;19938;-64
2023/03/28 01:43:59;;;;;;;;;;;;;;;-142.75;100.00;79147.84;5035011;28;19919;-65
2023/03/28 01:46:40;;;;;;;;;;;;;;;-142.75;100.00;79149.81;5034906;28;19917;-62
2023/03/28 01:49:08;;;;;;;;;;;;;;;-142.75;100.00;79147.84;5034741;28;19924;-65
2023/03/28 01:51:42;;;;;;;;;;;;;;;-142.75;100.00;79161.66;5034644;28;20385;-65
2023/03/28 01:54:08;;;;;;;;;;;;;;;-142.75;100.00;79167.56;5034422;28;19920;-65
2023/03/28 01:56:52;;;;;;;;;;;;;;;-142.75;100.00;79161.66;5034804;28;19913;-64
2023/03/28 01:59:21;;;;;;;;;;;;;;;-142.75;100.00;79151.78;5034739;28;19935;-64
2023/03/28 02:02:01;;;;;;;;;;;;;;;-142.75;100.00;79149.81;5034631;28;20288;-64
2023/03/28 02:04:28;;;;;;;;;;;;;;;-142.75;100.00;79175.44;5034064;28;19913;-65
2023/03/28 02:06:54;;;;;;;;;;;;;;;-142.75;100.00;79161.66;5034511;28;19921;-65
2023/03/28 02:09:22;;;;;;;;;;;;;;;-142.75;100.00;79179.38;5034449;28;20352;-64
2023/03/28 02:11:48;;;;;;;;;;;;;;;-142.75;100.00;79185.28;5034512;28;19959;-65
2023/03/28 02:14:17;;;;;;;;;;;;;;;-142.75;100.00;79183.31;5033654;28;19963;-65
2023/03/28 02:16:43;;;;;;;;;;;;;;;-142.75;100.00;79169.53;5033235;28;19983;-64
2023/03/28 02:19:10;;;;;;;;;;;;;;;-142.75;100.00;79167.56;5033184;28;19913;-64
2023/03/28 02:21:42;;;;;;;;;;;;;;;-142.75;100.00;79179.38;5034328;28;20419;-65
2023/03/28 02:24:10;;;;;;;;;;;;;;;-142.75;100.00;79173.47;5034002;28;20479;-65
2023/03/28 02:26:36;;;;;;;;;;;;;;;-142.75;100.00;79169.53;5034028;28;19917;-64
2023/03/28 02:29:01;;;;;;;;;;;;;;;-142.75;100.00;79161.66;5032806;28;20474;-65
2023/03/28 02:31:27;;;;;;;;;;;;;;;-142.75;100.00;79159.69;5034118;28;19957;-65
2023/03/28 02:33:52;;;;;;;;;;;;;;;-142.75;100.00;79161.66;5034079;28;20028;-64
2023/03/28 02:36:26;;;;;;;;;;;;;;;-142.75;100.00;79161.66;5032772;28;20016;-65
2023/03/28 02:39:04;;;;;;;;;;;;;;;-142.75;100.00;79155.72;5033610;28;19920;-63
2023/03/28 02:41:47;;;;;;;;;;;;;;;-142.75;100.00;79161.66;5033886;28;19913;-64
2023/03/28 02:44:31;;;;;;;;;;;;;;;-142.75;100.00;79155.72;5033788;28;20427;-64
2023/03/28 02:47:02;;;;;;;;;;;;;;;-142.75;100.00;79159.69;5032526;28;19927;-65
2023/03/28 02:49:33;;;;;;;;;;;;;;;-142.75;100.00;79149.81;5033599;28;20403;-64
2023/03/28 02:52:08;;;;;;;;;;;;;;;-142.75;100.00;79161.66;5033647;28;19913;-65
2023/03/28 02:54:42;;;;;;;;;;;;;;;-142.75;100.00;79157.72;5032274;28;20454;-65
2023/03/28 02:57:11;;;;;;;;;;;;;;;-142.75;100.00;79163.63;5033680;28;19967;-65
2023/03/28 02:59:43;;;;;;;;;;;;;;;-142.75;100.00;79169.53;5028100;28;20349;-64
2023/03/28 03:02:08;;;;;;;;;;;;;;;-142.75;100.00;79179.38;5013836;28;20340;-65
2023/03/28 03:04:34;;;;;;;;;;;;;;;-142.75;100.00;79173.47;5012281;28;19966;-61
2023/03/28 03:07:02;;;;;;;;;;;;;;;-142.75;100.00;79187.25;5013511;28;20325;-64
2023/03/28 03:09:27;;;;;;;;;;;;;;;-142.75;100.00;79189.22;5013603;28;19913;-65
2023/03/28 03:11:52;;;;;;;;;;;;;;;-142.75;100.00;79187.25;5013430;28;20438;-65
2023/03/28 03:14:17;;;;;;;;;;;;;;;-142.75;100.00;79197.09;5013193;28;19909;-64
2023/03/28 03:16:43;;;;;;;;;;;;;;;-142.75;100.00;79193.16;5012126;28;19917;-64
2023/03/28 03:19:08;;;;;;;;;;;;;;;-142.75;100.00;79195.13;5013494;28;19914;-64
2023/03/28 03:21:35;;;;;;;;;;;;;;;-142.75;100.00;79203.00;5013523;28;19952;-64
2023/03/28 03:24:00;;;;;;;;;;;;;;;-142.75;100.00;79189.22;5012830;28;20328;-65
2023/03/28 03:26:25;;;;;;;;;;;;;;;-142.75;100.00;79187.25;5012776;28;20012;-61
2023/03/28 03:28:51;;;;;;;;;;;;;;;-142.75;100.00;79181.34;5013416;28;19951;-65
2023/03/28 03:31:16;;;;;;;;;;;;;;;-142.75;100.00;79173.47;5013342;28;19913;-64
2023/03/28 03:33:41;;;;;;;;;;;;;;;-142.75;100.00;79165.59;5013408;28;19914;-65
2023/03/28 03:36:08;;;;;;;;;;;;;;;-142.75;100.00;79155.72;5012965;28;19968;-65
2023/03/28 03:38:34;;;;;;;;;;;;;;;-142.75;100.00;79147.84;5012945;28;19914;-64
2023/03/28 03:41:00;;;;;;;;;;;;;;;-142.75;100.00;79145.88;5012982;28;20293;-64
2023/03/28 03:43:26;;;;;;;;;;;;;;;-142.75;100.00;79157.72;5013174;28;19917;-64
2023/03/28 03:45:51;;;;;;;;;;;;;;;-142.75;100.00;79161.66;5011385;28;19918;-64
2023/03/28 03:48:17;;;;;;;;;;;;;;;-142.75;100.00;79163.63;5012793;28;19913;-65
2023/03/28 03:50:42;;;;;;;;;;;;;;;-142.75;100.00;79157.72;5011617;28;19917;-64
2023/03/28 03:53:07;;;;;;;;;;;;;;;-142.75;100.00;79139.97;5012771;28;19913;-64
2023/03/28 03:55:32;;;;;;;;;;;;;;;-142.75;100.00;79139.97;5012640;28;19917;-64
2023/03/28 03:57:58;;;;;;;;;;;;;;;-142.75;100.00;79149.81;5012822;28;19913;-65
2023/03/28 04:00:24;;;;;;;;;;;;;;;-142.75;100.00;79155.72;5012866;28;19913;-65
2023/03/28 04:02:49;;;;;;;;;;;;;;;-142.75;100.00;79153.75;5012623;28;19913;-64
2023/03/28 04:05:14;;;;;;;;;;;;;;;-142.75;100.00;79145.88;5012658;28;19914;-64
2023/03/28 04:07:40;;;;;;;;;;;;;;;-142.75;100.00;79153.75;5012333;28;19918;-65
2023/03/28 04:10:05;;;;;;;;;;;;;;;-142.75;100.00;79157.72;5012603;28;19936;-64
2023/03/28 04:12:31;;;;;;;;;;;;;;;-142.75;100.00;79149.81;5012585;28;19952;-65
2023/03/28 04:14:56;;;;;;;;;;;;;;;-142.75;100.00;79149.81;5012534;28;19917;-64
2023/03/28 04:17:22;;;;;;;;;;;;;;;-142.75;100.00;79149.81;5012522;28;20700;-65
2023/03/28 04:19:48;;;;;;;;;;;;;;;-142.75;100.00;79161.66;5012229;28;19913;-65
2023/03/28 04:22:13;;;;;;;;;;;;;;;-142.75;100.00;79173.47;5011001;28;19921;-65
2023/03/28 04:24:40;;;;;;;;;;;;;;;-142.75;100.00;79169.53;5012270;28;20488;-64
2023/03/28 04:27:08;;;;;;;;;;;;;;;-142.75;100.00;79177.41;5011408;28;20397;-65
2023/03/28 04:29:33;;;;;;;;;;;;;;;-142.75;100.00;79171.50;5011038;28;19925;-64
2023/03/28 04:31:58;;;;;;;;;;;;;;;-142.75;100.00;79169.53;5012038;28;19913;-65
2023/03/28 04:34:28;;;;;;;;;;;;;;;-142.75;100.00;79165.59;5012251;28;20007;-65
2023/03/28 04:36:55;;;;;;;;;;;;;;;-142.75;100.00;79189.22;5011938;28;19917;-65
2023/03/28 04:39:20;;;;;;;;;;;;;;;-142.75;100.00;79189.22;5012263;28;19968;-65
2023/03/28 04:41:46;;;;;;;;;;;;;;;-142.75;100.00;79199.06;5012153;28;20532;-63
2023/03/28 04:44:11;;;;;;;;;;;;;;;-142.75;100.00;79199.06;5011950;28;20381;-64
2023/03/28 04:46:36;;;;;;;;;;;;;;;-142.75;100.00;79193.16;5012193;28;19917;-64
2023/03/28 04:49:01;;;;;;;;;;;;;;;-142.75;100.00;79201.03;5012013;28;19924;-65
2023/03/28 04:51:27;;;;;;;;;;;;;;;-142.75;100.00;79197.09;5011912;28;20393;-62
2023/03/28 04:53:52;;;;;;;;;;;;;;;-142.75;100.00;79204.97;5011798;28;19917;-63
2023/03/28 04:56:17;;;;;;;;;;;;;;;-142.75;100.00;79201.03;5011870;28;20381;-65
2023/03/28 04:58:43;;;;;;;;;;;;;;;-142.75;100.00;79201.03;5012099;28;20000;-64
2023/03/28 05:01:09;;;;;;;;;;;;;;;-142.75;100.00;79195.13;5011991;28;20381;-64
2023/03/28 05:03:35;;;;;;;;;;;;;;;-142.75;100.00;79183.31;5012005;28;20012;-64
2023/03/28 05:06:00;;;;;;;;;;;;;;;-142.75;100.00;79181.34;5010254;28;20008;-65
2023/03/28 05:08:26;;;;;;;;;;;;;;;-142.75;100.00;79185.28;5011784;28;19921;-64
2023/03/28 05:10:51;;;;;;;;;;;;;;;-142.75;100.00;79197.09;5012076;28;20288;-65
2023/03/28 05:13:17;;;;;;;;;;;;;;;-142.75;100.00;79185.28;5011747;28;19913;-65
2023/03/28 05:15:42;;;;;;;;;;;;;;;-142.75;100.00;79189.22;5011940;28;20063;-64
2023/03/28 05:18:07;;;;;;;;;;;;;;;-142.75;100.00;79185.28;5011982;28;20385;-64
2023/03/28 05:20:33;;;;;;;;;;;;;;;-142.75;100.00;79183.31;5011831;28;19917;-64
2023/03/28 05:22:58;;;;;;;;;;;;;;;-142.75;100.00;79185.28;5011668;28;19913;-64
2023/03/28 05:25:24;;;;;;;;;;;;;;;-142.75;100.00;79181.34;5011805;28;20013;-65
2023/03/28 05:27:50;;;;;;;;;;;;;;;-142.75;100.00;79210.88;5011753;28;20300;-64
2023/03/28 05:30:15;;;;;;;;;;;;;;;-142.75;100.00;79204.97;5011793;28;19913;-64
2023/03/28 05:32:41;;;;;;;;;;;;;;;-142.75;100.00;79193.16;5010446;28;19929;-64
2023/03/28 05:35:07;;;;;;;;;;;;;;;-142.75;100.00;79185.28;5011408;28;20358;-64
2023/03/28 05:37:33;;;;;;;;;;;;;;;-142.75;100.00;79177.41;5010437;28;19914;-63
2023/03/28 05:39:58;;;;;;;;;;;;;;;-142.75;100.00;79173.47;5011653;28;19913;-63
2023/03/28 05:42:23;;;;;;;;;;;;;;;-142.75;100.00;79165.59;5011694;28;19965;-65
2023/03/28 05:44:49;;;;;;;;;;;;;;;-142.75;100.00;79157.72;5011587;28;20312;-64
2023/03/28 05:47:14;;;;;;;;;;;;;;;-142.75;100.00;79165.59;5010241;28;19924;-64
2023/03/28 05:49:39;;;;;;;;;;;;;;;-142.75;100.00;79153.75;5014172;28;20420;-65
2023/03/28 05:52:05;;;;;;;;;;;;;;;-142.75;100.00;79139.97;5002954;28;20313;-64
2023/03/28 05:54:30;;;;;;;;;;;;;;;-142.75;100.00;79141.94;5012567;28;20730;-65
2023/03/28 05:56:55;;;;;;;;;;;;;;;-142.75;100.00;79106.50;5012308;28;20365;-65
2023/03/28 05:59:23;;;;;;;;;;;;;;;-142.75;100.00;79086.78;5013529;28;20423;-65
2023/03/28 06:01:51;;;;;;;;;;;;;;;-142.75;100.00;79082.84;5012900;28;19960;-64
2023/03/28 06:04:16;;;;;;;;;;;;;;;-142.75;100.00;79061.19;5014493;28;19982;-64
2023/03/28 06:06:41;;;;;;;;;;;;;;;-142.75;100.00;79059.22;5014595;28;19928;-64
2023/03/28 06:09:07;;;;;;;;;;;;;;;-142.75;100.00;79065.13;5016010;28;19917;-64
2023/03/28 06:11:32;;;;;;;;;;;;;;;-142.75;100.00;79061.19;5013820;28;19921;-64
2023/03/28 06:13:57;;;;;;;;;;;;;;;-142.75;100.00;79049.38;5013032;28;19920;-64
2023/03/28 06:16:23;;;;;;;;;;;;;;;-142.75;100.00;79025.72;5014276;28;19924;-65
2023/03/28 06:18:48;;;;;;;;;;;;;;;-142.75;100.00;79027.69;5013965;28;19919;-63
2023/03/28 06:21:13;;;;;;;;;;;;;;;-142.75;100.00;79051.34;5013791;28;20320;-63
2023/03/28 06:23:39;;;;;;;;;;;;;;;-142.75;100.00;79047.41;5014308;28;19921;-65
2023/03/28 06:26:05;;;;;;;;;;;;;;;-142.75;100.00;79045.44;5012286;28;19925;-64
2023/03/28 06:28:30;;;;;;;;;;;;;;;-142.75;100.00;79049.38;5013085;28;19920;-63
2023/03/28 06:30:56;;;;;;;;;;;;;;;-142.75;100.00;79043.47;5014428;28;20057;-64
2023/03/28 06:33:21;;;;;;;;;;;;;;;-142.75;100.00;79023.75;5014238;28;20007;-65
2023/03/28 06:35:46;;;;;;;;;;;;;;;-142.75;100.00;79002.09;5012995;28;20273;-64
2023/03/28 06:38:11;;;;;;;;;;;;;;;-142.75;100.00;78990.28;5014239;28;20369;-64
2023/03/28 06:40:36;;;;;;;;;;;;;;;-142.75;100.00;78964.69;5014083;28;19913;-64
2023/03/28 06:43:02;;;;;;;;;;;;;;;-142.75;100.00;78946.94;5013996;28;19924;-64
2023/03/28 06:45:27;;;;;;;;;;;;;;;-142.75;100.00;78941.03;5013861;28;20465;-65
2023/03/28 06:47:52;;;;;;;;;;;;;;;-142.75;100.00;78913.47;5012781;28;19932;-65
2023/03/28 06:50:18;;;;;;;;;;;;;;;-142.75;100.00;78909.53;5012824;28;19917;-65
2023/03/28 06:52:43;;;;;;;;;;;;;;;-142.75;100.00;78874.06;5013855;28;19928;-64
2023/03/28 06:55:09;;;;;;;;;;;;;;;-142.75;100.00;78893.78;5013914;28;19913;-65
2023/03/28 06:57:34;;;;;;;;;;;;;;;-142.75;100.00;78891.78;5014013;28;19965;-65
2023/03/28 06:59:59;;;;;;;;;;;;;;;-142.75;100.00;78919.38;5013690;28;19960;-64
2023/03/28 07:02:25;;;;;;;;;;;;;;;-142.75;100.00;78917.41;5013757;28;19960;-64
2023/03/28 07:04:50;;;;;;;;;;;;;;;-142.75;100.00;78909.53;5013673;28;19913;-64
2023/03/28 07:07:15;;;;;;;;;;;;;;;-142.75;100.00;78915.44;5012071;28;19921;-63
2023/03/28 07:09:40;;;;;;;;;;;;;;;-142.75;100.00;78915.44;5012368;28;19928;-64
2023/03/28 07:12:06;;;;;;;;;;;;;;;-142.75;100.00;78903.63;5012040;28;19913;-65
2023/03/28 07:14:31;;;;;;;;;;;;;;;-142.75;100.00;78885.88;5004177;28;20397;-63
2023/03/28 07:16:56;;;;;;;;;;;;;;;-142.75;100.00;78897.72;5037384;22;20499;-67
2023/03/28 07:19:22;;;;;;;;;;;;;;;-142.75;100.00;78885.88;5033410;28;19920;-67
2023/03/28 07:21:47;;;;;;;;;;;;;;;-142.75;100.00;78913.47;5040231;28;19913;-67
2023/03/28 07:24:12;;;;;;;;;;;;;;;-142.75;100.00;78901.66;5034563;28;20015;-66
2023/03/28 07:26:38;;;;;;;;;;;;;;;-142.75;100.00;78911.50;5052485;28;20373;-66
2023/03/28 07:29:03;;;;;;;;;;;;;;;-142.75;100.00;78893.78;5045966;28;19913;-66
2023/03/28 07:31:28;;;;;;;;;;;;;;;-142.75;100.00;78874.06;5037253;28;19935;-67
2023/03/28 07:33:55;;;;;;;;;;;;;;;-142.75;100.00;78893.78;5041847;28;19921;-67
2023/03/28 07:36:20;;;;;;;;;;;;;;;-142.75;100.00;78879.97;5021831;28;19917;-67
2023/03/28 07:38:46;;;;;;;;;;;;;;;-142.75;100.00;78874.06;5041901;28;19928;-67
2023/03/28 07:41:11;;;;;;;;;;;;;;;-142.75;100.00;78818.91;5038543;28;19917;-66
2023/03/28 07:43:38;;;;;;;;;;;;;;;-142.75;100.00;78818.91;5037124;28;20377;-67
2023/03/28 07:46:05;;;;;;;;;;;;;;;-142.75;100.00;78830.75;5046205;28;19964;-66
2023/03/28 07:48:30;;;;;;;;;;;;;;;-142.75;100.00;78834.69;5043220;28;19913;-67
2023/03/28 07:50:55;;;;;;;;;;;;;;;-142.75;100.00;78868.16;5052607;28;19920;-67
2023/03/28 07:53:21;;;;;;;;;;;;;;;-142.75;100.00;78866.19;5052581;28;20623;-67
2023/03/28 07:55:47;;;;;;;;;;;;;;;-142.75;100.00;78850.44;5034680;28;19913;-67
2023/03/28 07:58:12;;;;;;;;;;;;;;;-142.75;100.00;78854.38;5051832;28;19916;-67
2023/03/28 08:00:37;;;;;;;;;;;;;;;-142.75;100.00;78876.03;5023098;28;20377;-67
2023/03/28 08:03:03;;;;;;;;;;;;;;;-142.75;100.00;78862.25;5041398;28;20299;-67
2023/03/28 08:05:28;;;;;;;;;;;;;;;-142.75;100.00;78842.56;5022893;28;19913;-67
2023/03/28 08:07:53;;;;;;;;;;;;;;;-142.75;100.00;78854.38;5041227;28;19990;-67
2023/03/28 08:10:19;;;;;;;;;;;;;;;-142.75;100.00;78874.06;5041736;28;19917;-66
2023/03/28 08:12:44;;;;;;;;;;;;;;;-142.75;100.00;78840.59;5040329;28;19912;-66
2023/03/28 08:15:10;;;;;;;;;;;;;;;-142.75;100.00;78866.19;5024535;28;20449;-67
2023/03/28 08:17:35;;;;;;;;;;;;;;;-142.75;100.00;78854.38;5049187;28;20372;-67
2023/03/28 08:20:00;;;;;;;;;;;;;;;-142.75;100.00;78878.00;5036570;28;19924;-67
2023/03/28 08:22:26;;;;;;;;;;;;;;;-142.75;100.00;78834.69;5031815;28;19913;-66
2023/03/28 08:24:51;;;;;;;;;;;;;;;-142.75;100.00;78816.94;5031877;28;19967;-67
2023/03/28 08:27:16;;;;;;;;;;;;;;;-142.75;100.00;78795.28;5045892;28;19928;-67
2023/03/28 08:29:41;;;;;;;;;;;;;;;-142.75;100.00;78809.06;5048694;28;19956;-67
2023/03/28 08:32:07;;;;;;;;;;;;;;;-142.75;100.00;78807.09;5020930;28;19960;-67
2023/03/28 08:34:32;;;;;;;;;;;;;;;-142.75;100.00;78799.22;5050724;28;20403;-66
2023/03/28 08:36:58;;;;;;;;;;;;;;;-142.75;100.00;78793.31;5032020;28;19917;-67
2023/03/28 08:39:24;;;;;;;;;;;;;;;-142.75;100.00;78813.00;5031910;28;19996;-67
2023/03/28 08:41:59;;;;;;;;;;;;;;;-142.75;100.00;78822.88;5032001;28;19920;-66
2023/03/28 08:44:42;;;;;;;;;;;;;;;-142.75;100.00;78826.81;5031935;28;19963;-66
2023/03/28 08:47:14;;;;;;;;;;;;;;;-142.75;100.00;78826.81;5039788;28;19921;-66
2023/03/28 08:49:44;;;;;;;;;;;;;;;-142.75;100.00;78822.88;5040863;28;19920;-66
2023/03/28 08:52:11;;;;;;;;;;;;;;;-142.75;100.00;78803.16;5040892;28;19920;-67
2023/03/28 08:54:37;;;;;;;;;;;;;;;-142.75;99.61;78807.09;5040979;28;19966;-67
2023/03/28 08:57:03;;;;;;;;;;;;;;;-142.75;99.53;78795.28;5041638;28;19917;-67
2023/03/28 08:59:39;;;;;;;;;;;;;;;-142.75;98.79;78783.47;5043784;28;20296;-66
2023/03/28 09:02:21;;;;;;;;;;;;;;;-142.75;94.15;78807.09;5038528;28;19923;-67
2023/03/28 09:04:47;;;;;;;;;;;;;;;-142.75;90.85;78830.75;5041403;28;19912;-66
2023/03/28 09:07:35;;;;;;;;;;;;;;;-142.75;90.84;78832.72;5040741;28;19954;-66
2023/03/28 09:10:19;;;;;;;;;;;;;;;-142.75;92.77;78826.81;5040785;28;20298;-66
2023/03/28 09:12:59;;;;;;;;;;;;;;;-142.75;91.52;78818.91;5040923;28;19960;-66
2023/03/28 09:15:33;;;;;;;;;;;;;;;-142.75;92.50;78830.75;5039757;28;20154;-66
2023/03/28 09:18:22;;;;;;;;;;;;;;;-142.75;92.46;78801.19;5048467;28;19916;-64
2023/03/28 09:20:47;;;;;;;;;;;;;;;-142.75;91.46;78799.22;5051319;28;19917;-66
2023/03/28 09:23:12;;;;;;;;;;;;;;;-142.75;91.89;78818.91;5054104;28;20285;-66
2023/03/28 09:25:47;;;;;;;;;;;;;;;-142.75;92.02;78799.22;5055254;28;19952;-66
2023/03/28 09:28:28;;;;;;;;;;;;;;;-142.75;88.30;78814.97;5037533;28;20353;-66
2023/03/28 09:30:55;;;;;;;;;;;;;;;-142.75;86.64;78787.41;5055335;28;19920;-66
2023/03/28 09:33:25;;;;;;;;;;;;;;;-142.75;85.52;78763.78;5055174;28;19960;-66
2023/03/28 09:35:54;;;;;;;;;;;;;;;-142.75;86.82;78765.75;5055162;28;20472;-66
2023/03/28 09:38:23;;;;;;;;;;;;;;;-142.75;85.89;78755.91;5035320;28;19971;-66
2023/03/28 09:40:50;;;;;;;;;;;;;;;-142.75;85.95;78765.75;5035245;28;19913;-66
2023/03/28 09:43:39;;;;;;;;;;;;;;;-142.75;86.35;78769.69;5035071;28;19921;-66
2023/03/28 09:46:10;;;;;;;;;;;;;;;-142.75;84.60;78771.66;5035023;28;19971;-66
2023/03/28 09:48:36;;;;;;;;;;;;;;;-142.75;83.69;78744.09;5026298;28;20291;-66
2023/03/28 09:51:02;;;;;;;;;;;;;;;-142.75;82.80;78744.09;5054885;28;19943;-66
2023/03/28 09:53:29;;;;;;;;;;;;;;;-142.75;79.50;78787.41;5055015;28;19920;-66
2023/03/28 09:55:56;;;;;;;;;;;;;;;-142.75;80.28;78777.56;5055005;28;19917;-66
2023/03/28 09:58:21;;;;;;;;;;;;;;;-142.75;80.17;78761.81;5054724;28;19924;-66
2023/03/28 10:00:48;;;;;;;;;;;;;;;-142.75;81.29;78738.16;5054860;28;19921;-66
2023/03/28 10:03:22;;;;;;;;;;;;;;;-142.75;82.27;78726.34;5054514;28;19913;-66
2023/03/28 10:05:48;;;;;;;;;;;;;;;-142.75;82.43;78726.34;5054577;28;20288;-66
2023/03/28 10:08:33;;;;;;;;;;;;;;;-142.75;81.17;78712.56;5036705;28;19913;-66
2023/03/28 10:10:59;;;;;;;;;;;;;;;-142.75;80.75;78708.63;5053166;28;19938;-65
2023/03/28 10:13:25;;;;;;;;;;;;;;;-142.75;78.49;78718.47;5052814;28;19919;-66
2023/03/28 10:15:51;;;;;;;;;;;;;;;-142.75;78.80;78732.25;5053726;28;19913;-66
2023/03/28 10:18:17;;;;;;;;;;;;;;;-142.75;78.89;78724.38;5053356;28;19917;-66
2023/03/28 10:20:44;;;;;;;;;;;;;;;-142.75;78.68;78722.41;5050503;28;19923;-66
2023/03/28 10:23:11;;;;;;;;;;;;;;;-142.75;78.37;78712.56;5054152;28;19912;-66
2023/03/28 10:25:43;;;;;;;;;;;;;;;-142.75;78.02;78700.75;5046237;28;19979;-66
2023/03/28 10:28:20;;;;;;;;;;;;;;;-142.75;79.81;78661.34;5044835;28;19996;-66
2023/03/28 10:30:53;;;;;;;;;;;;;;;-142.75;77.26;78649.53;5044976;28;19999;-65
2023/03/28 10:33:22;;;;;;;;;;;;;;;-142.75;78.13;78629.84;5043649;28;19913;-66
2023/03/28 10:35:56;;;;;;;;;;;;;;;-142.75;76.36;78645.59;5042284;28;20004;-65
2023/03/28 10:38:22;;;;;;;;;;;;;;;-142.75;78.23;78631.81;5044905;28;19924;-65
2023/03/28 10:40:50;;;;;;;;;;;;;;;-142.75;78.29;78620.00;5042880;28;20027;-64
2023/03/28 10:43:15;;;;;;;;;;;;;;;-142.75;78.93;78584.56;5043265;28;19917;-66
2023/03/28 10:45:42;;;;;;;;;;;;;;;-142.75;79.01;78574.69;5026601;28;20015;-65
2023/03/28 10:48:19;;;;;;;;;;;;;;;-142.75;79.90;78564.84;5047777;28;20361;-65
2023/03/28 10:50:45;;;;;;;;;;;;;;;-142.75;80.54;78560.91;5043400;28;20299;-67
2023/03/28 10:53:14;;;;;;;;;;;;;;;-142.75;80.87;78566.81;5053374;28;20299;-67
2023/03/28 10:55:50;;;;;;;;;;;;;;;-142.75;79.87;78612.13;5053651;28;19936;-67
2023/03/28 10:58:19;;;;;;;;;;;;;;;-142.75;79.40;78606.22;5053691;28;20372;-67
2023/03/28 11:01:04;;;;;;;;;;;;;;;-142.75;76.29;78651.50;5053591;28;19914;-67
2023/03/28 11:03:37;;;;;;;;;;;;;;;-142.75;78.65;78639.69;5042927;28;19912;-67
2023/03/28 11:06:10;;;;;;;;;;;;;;;-142.75;78.45;78649.53;5053439;28;19948;-66
2023/03/28 11:08:40;;;;;;;;;;;;;;;-142.75;80.57;78643.63;5036189;28;19917;-67
2023/03/28 11:11:24;;;;;;;;;;;;;;;-142.75;80.44;78647.56;5033557;28;19958;-66
2023/03/28 11:14:03;;;;;;;;;;;;;;;-142.75;81.48;78614.09;5033598;28;20364;-67
2023/03/28 11:16:37;;;;;;;;;;;;;;;-142.75;79.84;78629.84;5033424;28;19917;-67
2023/03/28 11:19:08;;;;;;;;;;;;;;;-142.75;78.99;78643.63;5033474;28;19959;-67
2023/03/28 11:21:52;;;;;;;;;;;;;;;-142.75;80.26;78623.94;5033371;28;20016;-67
2023/03/28 11:24:35;;;;;;;;;;;;;;;-142.75;79.81;78618.03;5033227;28;19913;-67
2023/03/28 11:27:06;;;;;;;;;;;;;;;-142.75;80.26;78602.28;5033133;28;19924;-67
2023/03/28 11:29:40;;;;;;;;;;;;;;;-142.75;81.81;78586.53;5033314;28;19998;-67
2023/03/28 11:32:28;;;;;;;;;;;;;;;-142.75;80.71;78580.59;5033113;28;19928;-67
2023/03/28 11:35:00;;;;;;;;;;;;;;;-142.75;81.75;78574.69;5032989;28;20308;-67
2023/03/28 11:37:35;;;;;;;;;;;;;;;-142.75;79.99;78564.84;5033070;28;19979;-67
2023/03/28 11:40:17;;;;;;;;;;;;;;;-142.75;79.76;78568.78;5033101;28;19959;-67
2023/03/28 11:43:02;;;;;;;;;;;;;;;-142.75;80.21;78555.00;5032900;28;20314;-67
2023/03/28 11:45:31;;;;;;;;;;;;;;;-142.75;80.59;78527.44;5013763;28;20000;-67
2023/03/28 11:48:06;;;;;;;;;;;;;;;-142.75;79.44;78519.56;5032669;28;19917;-67
2023/03/28 11:50:41;;;;;;;;;;;;;;;-142.75;80.62;78515.63;5032791;28;19912;-67
2023/03/28 11:53:09;;;;;;;;;;;;;;;-142.75;79.63;78519.56;5032677;28;20385;-67
2023/03/28 11:55:38;;;;;;;;;;;;;;;-142.75;80.45;78513.66;5014833;28;20343;-67
2023/03/28 11:58:22;;;;;;;;;;;;;;;-142.75;80.05;78511.69;5032601;28;19960;-67
2023/03/28 12:00:52;;;;;;;;;;;;;;;-142.75;79.45;78490.00;5032709;28;19972;-67
2023/03/28 12:03:37;;;;;;;;;;;;;;;-142.75;79.35;78468.34;5032854;28;20385;-67
2023/03/28 12:06:06;;;;;;;;;;;;;;;-142.75;77.65;78446.69;5007319;28;19971;-66
2023/03/28 12:08:33;;;;;;;;;;;;;;;-142.75;79.03;78381.69;5032477;28;19996;-66
2023/03/28 12:11:04;;;;;;;;;;;;;;;-142.75;77.47;78350.19;5032339;28;20412;-66
2023/03/28 12:13:38;;;;;;;;;;;;;;;-142.75;75.86;78267.47;5032495;28;19913;-68
2023/03/28 12:16:15;;;;;;;;;;;;;;;-142.75;75.94;78275.34;5032294;28;19967;-69
2023/03/28 12:18:40;;;;;;;;;;;;;;;-142.75;75.39;78297.00;5032225;28;19917;-69
2023/03/28 12:21:16;;;;;;;;;;;;;;;-142.75;77.80;78304.91;5032265;28;20335;-69
2023/03/28 12:24:00;;;;;;;;;;;;;;;-142.75;75.39;78350.19;5032363;28;20459;-70
2023/03/28 12:26:36;;;;;;;;;;;;;;;-142.75;75.18;78354.13;5032172;28;19923;-68
2023/03/28 12:29:14;;;;;;;;;;;;;;;-142.75;75.32;78352.16;5032221;28;20311;-69